CQH6788 ZLLL-ZBSJ
Flight info
| Callsign | CQH6788 |
|---|---|
| Flight time | N/A |
| Altitude | 31100 |
| Route | LEVGI W211 ZWX W219 YHD B215 GODON W87 PARTU G212 TONOV TONOV8ZA |
| Aircraft | A320/M-SDE3FGHIRWY/LB1 |
Departure
| Time | 2026-05-07 09:14 |
|---|---|
| Airport | Lanzhou Zhongchuan International Airport (ZLLL) |
Arrival
| Time | N/A |
|---|---|
| Airport | Shijiazhuang Zhengding International Airport (ZBSJ) |
| Time | Latitude | Longitude | Altitude | Speed | Heading |
|---|---|---|---|---|---|
| 2026-05-07 08:34 | 36.52616 | 103.63047 | 6389 ft | 0 kts | 62° |
| 2026-05-07 08:57 | 36.52612 | 103.63038 | 6383 ft | 4 kts | 61° |
| 2026-05-07 08:57 | 36.52598 | 103.63009 | 6389 ft | 4 kts | 55° |
| 2026-05-07 08:57 | 36.52581 | 103.62983 | 6386 ft | 4 kts | 42° |
| 2026-05-07 08:58 | 36.52560 | 103.62966 | 6387 ft | 4 kts | 1° |
| 2026-05-07 08:58 | 36.52547 | 103.62969 | 6385 ft | 1 kts | 332° |
| 2026-05-07 08:58 | 36.52545 | 103.62970 | 6385 ft | 0 kts | 332° |
| 2026-05-07 09:01 | 36.52562 | 103.62959 | 6382 ft | 6 kts | 332° |
| 2026-05-07 09:01 | 36.52587 | 103.62942 | 6385 ft | 2 kts | 332° |
| 2026-05-07 09:02 | 36.52594 | 103.62938 | 6385 ft | 1 kts | 332° |
| 2026-05-07 09:02 | 36.52596 | 103.62936 | 6385 ft | 0 kts | 332° |
| 2026-05-07 09:03 | 36.52597 | 103.62936 | 6388 ft | 1 kts | 332° |
| 2026-05-07 09:03 | 36.52600 | 103.62934 | 6387 ft | 0 kts | 332° |
| 2026-05-07 09:03 | 36.52619 | 103.62921 | 6387 ft | 8 kts | 332° |
| 2026-05-07 09:04 | 36.52661 | 103.62893 | 6386 ft | 5 kts | 332° |
| 2026-05-07 09:04 | 36.52683 | 103.62883 | 6385 ft | 2 kts | 344° |
| 2026-05-07 09:04 | 36.52688 | 103.62881 | 6385 ft | 2 kts | 344° |
| 2026-05-07 09:04 | 36.52727 | 103.62877 | 6390 ft | 9 kts | 355° |
| 2026-05-07 09:05 | 36.52804 | 103.62871 | 6389 ft | 11 kts | 357° |
| 2026-05-07 09:05 | 36.52882 | 103.62867 | 6388 ft | 11 kts | 357° |
| 2026-05-07 09:05 | 36.52958 | 103.62862 | 6391 ft | 11 kts | 357° |
| 2026-05-07 09:05 | 36.53029 | 103.62858 | 6391 ft | 10 kts | 357° |
| 2026-05-07 09:06 | 36.53098 | 103.62853 | 6393 ft | 10 kts | 357° |
| 2026-05-07 09:06 | 36.53161 | 103.62869 | 6393 ft | 10 kts | 42° |
| 2026-05-07 09:06 | 36.53174 | 103.62952 | 6393 ft | 10 kts | 86° |
| 2026-05-07 09:06 | 36.53178 | 103.63044 | 6393 ft | 11 kts | 87° |
| 2026-05-07 09:07 | 36.53182 | 103.63145 | 6394 ft | 12 kts | 87° |
| 2026-05-07 09:07 | 36.53186 | 103.63255 | 6393 ft | 13 kts | 87° |
| 2026-05-07 09:07 | 36.53191 | 103.63375 | 6393 ft | 14 kts | 87° |
| 2026-05-07 09:07 | 36.53196 | 103.63504 | 6393 ft | 15 kts | 87° |
| 2026-05-07 09:08 | 36.53202 | 103.63642 | 6392 ft | 17 kts | 87° |
| 2026-05-07 09:08 | 36.53209 | 103.63791 | 6394 ft | 18 kts | 86° |
| 2026-05-07 09:08 | 36.53215 | 103.63947 | 6391 ft | 19 kts | 87° |
| 2026-05-07 09:08 | 36.53222 | 103.64096 | 6391 ft | 16 kts | 86° |
| 2026-05-07 09:09 | 36.53235 | 103.64237 | 6391 ft | 16 kts | 60° |
| 2026-05-07 09:09 | 36.53339 | 103.64253 | 6394 ft | 15 kts | 354° |
| 2026-05-07 09:09 | 36.53444 | 103.64249 | 6396 ft | 15 kts | 358° |
| 2026-05-07 09:09 | 36.53546 | 103.64241 | 6397 ft | 14 kts | 357° |
| 2026-05-07 09:10 | 36.53612 | 103.64238 | 6399 ft | 14 kts | 357° |
| 2026-05-07 09:10 | 36.53708 | 103.64232 | 6399 ft | 13 kts | 357° |
| 2026-05-07 09:10 | 36.53799 | 103.64225 | 6401 ft | 13 kts | 357° |
| 2026-05-07 09:10 | 36.53860 | 103.64221 | 6400 ft | 8 kts | 357° |
| 2026-05-07 09:11 | 36.53903 | 103.64219 | 6402 ft | 5 kts | 357° |
| 2026-05-07 09:11 | 36.53926 | 103.64223 | 6402 ft | 2 kts | 17° |
| 2026-05-07 09:11 | 36.53941 | 103.64235 | 6402 ft | 6 kts | 40° |
| 2026-05-07 09:11 | 36.53952 | 103.64279 | 6403 ft | 5 kts | 89° |
| 2026-05-07 09:12 | 36.53953 | 103.64323 | 6403 ft | 5 kts | 89° |
| 2026-05-07 09:12 | 36.53952 | 103.64362 | 6404 ft | 5 kts | 96° |
| 2026-05-07 09:12 | 36.53940 | 103.64398 | 6403 ft | 5 kts | 124° |
| 2026-05-07 09:12 | 36.53915 | 103.64417 | 6404 ft | 3 kts | 166° |
| 2026-05-07 09:13 | 36.53909 | 103.64418 | 6404 ft | 0 kts | 171° |
| 2026-05-07 09:13 | 36.53845 | 103.64424 | 6403 ft | 32 kts | 177° |
| 2026-05-07 09:13 | 36.53365 | 103.64456 | 6391 ft | 103 kts | 176° |
| 2026-05-07 09:13 | 36.52451 | 103.64517 | 6383 ft | 158 kts | 177° |
| 2026-05-07 09:14 | 36.51226 | 103.64583 | 6625 ft | 182 kts | 178° |
| 2026-05-07 09:14 | 36.49963 | 103.64620 | 7453 ft | 180 kts | 171° |
| 2026-05-07 09:14 | 36.48755 | 103.65149 | 7912 ft | 195 kts | 148° |
| 2026-05-07 09:14 | 36.47569 | 103.66143 | 8093 ft | 216 kts | 143° |
| 2026-05-07 09:15 | 36.46300 | 103.67330 | 8308 ft | 241 kts | 142° |
| 2026-05-07 09:15 | 36.44921 | 103.68626 | 8809 ft | 255 kts | 142° |
| 2026-05-07 09:15 | 36.43484 | 103.69948 | 9612 ft | 260 kts | 143° |
| 2026-05-07 09:15 | 36.42013 | 103.71268 | 10470 ft | 262 kts | 144° |
| 2026-05-07 09:16 | 36.40511 | 103.72589 | 11227 ft | 266 kts | 144° |
| 2026-05-07 09:16 | 36.38981 | 103.73915 | 11951 ft | 270 kts | 144° |
| 2026-05-07 09:16 | 36.37511 | 103.75427 | 12454 ft | 285 kts | 129° |
| 2026-05-07 09:16 | 36.36524 | 103.77609 | 12955 ft | 297 kts | 107° |
| 2026-05-07 09:17 | 36.36264 | 103.80158 | 13652 ft | 303 kts | 85° |
| 2026-05-07 09:17 | 36.36806 | 103.82686 | 14327 ft | 308 kts | 63° |
| 2026-05-07 09:17 | 36.38100 | 103.84815 | 14613 ft | 312 kts | 43° |
| 2026-05-07 09:17 | 36.39718 | 103.86608 | 14690 ft | 311 kts | 42° |
| 2026-05-07 09:18 | 36.41418 | 103.88252 | 14704 ft | 310 kts | 31° |
| 2026-05-07 09:18 | 36.43384 | 103.89338 | 14708 ft | 310 kts | 17° |
| 2026-05-07 09:18 | 36.45473 | 103.89783 | 14713 ft | 310 kts | 2° |
| 2026-05-07 09:18 | 36.47637 | 103.89682 | 14827 ft | 315 kts | 357° |
| 2026-05-07 09:19 | 36.49829 | 103.89525 | 15561 ft | 316 kts | 357° |
| 2026-05-07 09:19 | 36.52033 | 103.89371 | 16264 ft | 319 kts | 357° |
| 2026-05-07 09:19 | 36.54256 | 103.89213 | 16947 ft | 322 kts | 358° |
| 2026-05-07 09:19 | 36.56494 | 103.89056 | 17452 ft | 332 kts | 358° |
| 2026-05-07 09:20 | 36.58878 | 103.88908 | 17582 ft | 353 kts | 358° |
| 2026-05-07 09:20 | 36.61396 | 103.88764 | 17722 ft | 372 kts | 358° |
| 2026-05-07 09:20 | 36.64020 | 103.88616 | 18104 ft | 382 kts | 358° |
| 2026-05-07 09:20 | 36.66694 | 103.88463 | 18633 ft | 387 kts | 358° |
| 2026-05-07 09:21 | 36.69386 | 103.88307 | 19183 ft | 389 kts | 358° |
| 2026-05-07 09:21 | 36.72089 | 103.88148 | 19772 ft | 390 kts | 357° |
| 2026-05-07 09:21 | 36.74805 | 103.87987 | 20371 ft | 390 kts | 356° |
| 2026-05-07 09:21 | 36.77518 | 103.87827 | 20929 ft | 392 kts | 356° |
| 2026-05-07 09:22 | 36.80264 | 103.87789 | 21386 ft | 397 kts | 5° |
| 2026-05-07 09:22 | 36.82963 | 103.88559 | 21870 ft | 402 kts | 20° |
| 2026-05-07 09:22 | 36.85433 | 103.90237 | 22360 ft | 408 kts | 36° |
| 2026-05-07 09:22 | 36.87458 | 103.92735 | 22830 ft | 414 kts | 51° |
| 2026-05-07 09:23 | 36.88858 | 103.95896 | 23263 ft | 421 kts | 68° |
| 2026-05-07 09:23 | 36.89715 | 103.99425 | 23660 ft | 427 kts | 72° |
| 2026-05-07 09:23 | 36.90529 | 104.03005 | 24035 ft | 431 kts | 72° |
| 2026-05-07 09:23 | 36.91348 | 104.06620 | 24376 ft | 435 kts | 72° |
| 2026-05-07 09:24 | 36.92175 | 104.10275 | 24705 ft | 439 kts | 72° |
| 2026-05-07 09:24 | 36.93008 | 104.13960 | 25041 ft | 442 kts | 72° |
| 2026-05-07 09:24 | 36.93852 | 104.17678 | 25369 ft | 446 kts | 72° |
| 2026-05-07 09:24 | 36.94828 | 104.21367 | 25680 ft | 448 kts | 65° |
| 2026-05-07 09:25 | 36.96242 | 104.24834 | 25960 ft | 449 kts | 55° |
| 2026-05-07 09:25 | 36.98090 | 104.27984 | 26265 ft | 449 kts | 46° |
| 2026-05-07 09:25 | 37.00179 | 104.30910 | 26562 ft | 453 kts | 45° |
| 2026-05-07 09:25 | 37.02283 | 104.33865 | 26874 ft | 457 kts | 45° |
| 2026-05-07 09:26 | 37.04398 | 104.36854 | 27195 ft | 460 kts | 46° |
| 2026-05-07 09:26 | 37.06526 | 104.39874 | 27513 ft | 464 kts | 46° |
| 2026-05-07 09:26 | 37.08670 | 104.42924 | 27854 ft | 467 kts | 45° |
| 2026-05-07 09:26 | 37.10824 | 104.45988 | 28163 ft | 471 kts | 45° |
| 2026-05-07 09:27 | 37.12998 | 104.49075 | 28452 ft | 475 kts | 44° |
| 2026-05-07 09:27 | 37.15189 | 104.52188 | 28737 ft | 478 kts | 44° |
| 2026-05-07 09:27 | 37.19611 | 104.58487 | 29295 ft | 484 kts | 44° |
| 2026-05-07 09:28 | 37.21848 | 104.61676 | 29555 ft | 488 kts | 44° |
| 2026-05-07 09:28 | 37.24090 | 104.64880 | 29823 ft | 491 kts | 44° |
| 2026-05-07 09:28 | 37.26350 | 104.68117 | 30074 ft | 494 kts | 45° |
| 2026-05-07 09:28 | 37.28461 | 104.71538 | 30028 ft | 502 kts | 56° |
| 2026-05-07 09:29 | 37.29727 | 104.75654 | 30649 ft | 512 kts | 77° |
| 2026-05-07 09:29 | 37.29888 | 104.80111 | 30979 ft | 514 kts | 97° |
| 2026-05-07 09:29 | 37.28938 | 104.84420 | 31194 ft | 512 kts | 117° |
| 2026-05-07 09:29 | 37.27010 | 104.88080 | 31242 ft | 497 kts | 138° |
| 2026-05-07 09:30 | 37.24332 | 104.90675 | 31239 ft | 480 kts | 159° |
| 2026-05-07 09:30 | 37.21244 | 104.91935 | 31253 ft | 459 kts | 179° |
| 2026-05-07 09:30 | 37.18140 | 104.91774 | 31244 ft | 439 kts | 200° |
| 2026-05-07 09:30 | 37.15412 | 104.90268 | 31248 ft | 423 kts | 221° |
| 2026-05-07 09:31 | 37.13436 | 104.87712 | 31256 ft | 411 kts | 242° |
| 2026-05-07 09:31 | 37.11112 | 104.81174 | 31255 ft | 409 kts | 250° |
| 2026-05-07 09:32 | 37.08936 | 104.74639 | 31252 ft | 409 kts | 250° |
| 2026-05-07 09:32 | 37.06747 | 104.68062 | 31249 ft | 409 kts | 250° |
| 2026-05-07 09:33 | 37.04561 | 104.61491 | 31248 ft | 409 kts | 250° |
| 2026-05-07 09:33 | 37.02374 | 104.54920 | 31226 ft | 409 kts | 249° |
| 2026-05-07 09:34 | 37.00186 | 104.48341 | 31245 ft | 410 kts | 249° |
| 2026-05-07 09:34 | 36.97997 | 104.41758 | 31247 ft | 410 kts | 249° |
| 2026-05-07 09:35 | 36.95806 | 104.35167 | 31257 ft | 411 kts | 249° |
| 2026-05-07 09:35 | 36.93613 | 104.28571 | 31263 ft | 410 kts | 249° |
| 2026-05-07 09:36 | 36.91422 | 104.21982 | 31261 ft | 411 kts | 249° |
| 2026-05-07 09:36 | 36.89096 | 104.15461 | 31276 ft | 413 kts | 239° |
| 2026-05-07 09:36 | 36.87276 | 104.12667 | 31276 ft | 418 kts | 226° |
| 2026-05-07 09:37 | 36.84804 | 104.10710 | 31264 ft | 428 kts | 204° |
| 2026-05-07 09:37 | 36.81851 | 104.10036 | 31268 ft | 441 kts | 183° |
| 2026-05-07 09:37 | 36.78809 | 104.10772 | 31269 ft | 455 kts | 162° |
| 2026-05-07 09:37 | 36.76046 | 104.12780 | 31272 ft | 464 kts | 149° |
| 2026-05-07 09:38 | 36.73314 | 104.14858 | 31266 ft | 456 kts | 162° |
| 2026-05-07 09:38 | 36.70291 | 104.15759 | 31270 ft | 441 kts | 184° |
| 2026-05-07 09:38 | 36.67328 | 104.15252 | 31270 ft | 426 kts | 205° |
| 2026-05-07 09:38 | 36.64815 | 104.13451 | 31270 ft | 413 kts | 226° |
| 2026-05-07 09:39 | 36.63029 | 104.10711 | 31259 ft | 407 kts | 239° |
| 2026-05-07 09:39 | 36.59863 | 104.04834 | 31281 ft | 410 kts | 238° |
| 2026-05-07 09:40 | 36.56669 | 103.98940 | 31285 ft | 412 kts | 238° |
| 2026-05-07 09:40 | 36.53448 | 103.93038 | 31304 ft | 413 kts | 238° |
| 2026-05-07 09:41 | 36.50625 | 103.86884 | 31311 ft | 409 kts | 255° |
| 2026-05-07 09:41 | 36.50194 | 103.83405 | 31315 ft | 408 kts | 270° |
| 2026-05-07 09:41 | 36.50593 | 103.79914 | 31310 ft | 411 kts | 285° |
| 2026-05-07 09:41 | 36.51791 | 103.76682 | 31309 ft | 416 kts | 301° |
| 2026-05-07 09:42 | 36.53727 | 103.73972 | 31309 ft | 425 kts | 317° |
| 2026-05-07 09:42 | 36.56281 | 103.72056 | 31307 ft | 437 kts | 334° |
| 2026-05-07 09:42 | 36.59274 | 103.71182 | 31308 ft | 450 kts | 352° |
| 2026-05-07 09:42 | 36.62423 | 103.71543 | 31308 ft | 463 kts | 11° |
| 2026-05-07 09:43 | 36.65387 | 103.73205 | 31310 ft | 475 kts | 31° |
| 2026-05-07 09:43 | 36.67814 | 103.76028 | 31328 ft | 483 kts | 47° |
| 2026-05-07 09:43 | 36.69946 | 103.79274 | 31304 ft | 485 kts | 48° |
| 2026-05-07 09:44 | 36.74186 | 103.85842 | 31308 ft | 488 kts | 49° |
| 2026-05-07 09:44 | 36.78444 | 103.92459 | 31305 ft | 490 kts | 49° |
| 2026-05-07 09:45 | 36.82694 | 103.99042 | 31287 ft | 491 kts | 48° |
| 2026-05-07 09:45 | 36.86986 | 104.05685 | 31290 ft | 492 kts | 48° |
| 2026-05-07 09:46 | 36.91280 | 104.12344 | 31283 ft | 492 kts | 48° |
| 2026-05-07 09:46 | 36.95565 | 104.19016 | 31271 ft | 492 kts | 48° |
| 2026-05-07 09:47 | 36.99851 | 104.25689 | 31255 ft | 492 kts | 48° |
| 2026-05-07 09:47 | 37.04132 | 104.32377 | 31244 ft | 492 kts | 48° |
| 2026-05-07 09:48 | 37.08409 | 104.39081 | 31262 ft | 493 kts | 47° |
| 2026-05-07 09:48 | 37.12684 | 104.45793 | 31250 ft | 493 kts | 48° |
| 2026-05-07 09:49 | 37.16963 | 104.52514 | 31239 ft | 493 kts | 47° |
| 2026-05-07 09:49 | 37.21239 | 104.59235 | 31230 ft | 493 kts | 48° |
| 2026-05-07 09:50 | 37.25496 | 104.65962 | 31226 ft | 493 kts | 48° |
| 2026-05-07 09:50 | 37.29275 | 104.73146 | 31235 ft | 501 kts | 66° |
| 2026-05-07 09:51 | 37.32492 | 104.80728 | 31230 ft | 487 kts | 44° |
| 2026-05-07 09:51 | 37.37354 | 104.86527 | 31212 ft | 480 kts | 35° |
| 2026-05-07 09:52 | 37.42377 | 104.92082 | 31213 ft | 483 kts | 38° |
| 2026-05-07 09:52 | 37.47074 | 104.98152 | 31222 ft | 486 kts | 42° |
| 2026-05-07 09:53 | 37.51585 | 105.04536 | 31201 ft | 488 kts | 43° |
| 2026-05-07 09:53 | 37.56106 | 105.10884 | 31192 ft | 487 kts | 42° |
| 2026-05-07 09:54 | 37.60405 | 105.17553 | 31182 ft | 491 kts | 47° |
| 2026-05-07 09:54 | 37.64591 | 105.24366 | 31180 ft | 491 kts | 47° |
| 2026-05-07 09:55 | 37.68734 | 105.31168 | 31189 ft | 492 kts | 46° |
| 2026-05-07 09:55 | 37.72897 | 105.38040 | 31176 ft | 493 kts | 46° |
| 2026-05-07 09:56 | 37.77065 | 105.44929 | 31171 ft | 493 kts | 46° |
| 2026-05-07 09:56 | 37.80525 | 105.50659 | 31170 ft | 494 kts | 46° |
| 2026-05-07 09:57 | 37.84726 | 105.57605 | 31168 ft | 494 kts | 46° |
| 2026-05-07 09:57 | 37.88909 | 105.64502 | 31173 ft | 494 kts | 46° |
| 2026-05-07 09:58 | 37.93058 | 105.71357 | 31166 ft | 494 kts | 46° |
| 2026-05-07 09:58 | 37.97236 | 105.78276 | 31163 ft | 494 kts | 46° |
| 2026-05-07 09:59 | 38.01406 | 105.85208 | 31153 ft | 495 kts | 46° |
| 2026-05-07 09:59 | 38.05580 | 105.92156 | 31168 ft | 495 kts | 46° |
| 2026-05-07 10:00 | 38.09747 | 105.99106 | 31160 ft | 495 kts | 46° |
| 2026-05-07 10:00 | 38.13918 | 106.06073 | 31164 ft | 496 kts | 46° |
| 2026-05-07 10:01 | 38.18073 | 106.13049 | 31149 ft | 496 kts | 46° |
| 2026-05-07 10:01 | 38.22238 | 106.20049 | 31168 ft | 496 kts | 46° |
| 2026-05-07 10:02 | 38.26406 | 106.27042 | 31178 ft | 495 kts | 46° |
| 2026-05-07 10:02 | 38.30508 | 106.34097 | 31161 ft | 500 kts | 52° |
| 2026-05-07 10:02 | 38.32117 | 106.38051 | 31160 ft | 509 kts | 63° |
| 2026-05-07 10:03 | 38.33188 | 106.42380 | 31154 ft | 516 kts | 74° |
| 2026-05-07 10:03 | 38.33673 | 106.46928 | 31148 ft | 521 kts | 85° |
| 2026-05-07 10:03 | 38.33559 | 106.51542 | 31150 ft | 524 kts | 96° |
| 2026-05-07 10:04 | 38.32609 | 106.60773 | 31150 ft | 526 kts | 96° |
| 2026-05-07 10:04 | 38.31638 | 106.70004 | 31174 ft | 526 kts | 96° |
| 2026-05-07 10:05 | 38.30655 | 106.79246 | 31172 ft | 527 kts | 96° |
| 2026-05-07 10:05 | 38.29664 | 106.88497 | 31171 ft | 528 kts | 96° |
| 2026-05-07 10:06 | 38.28670 | 106.97749 | 31180 ft | 528 kts | 96° |
| 2026-05-07 10:06 | 38.27662 | 107.07005 | 31189 ft | 528 kts | 96° |
| 2026-05-07 10:07 | 38.26644 | 107.16261 | 31181 ft | 528 kts | 96° |
| 2026-05-07 10:07 | 38.25622 | 107.25519 | 31178 ft | 529 kts | 97° |
| 2026-05-07 10:08 | 38.24594 | 107.34788 | 31181 ft | 529 kts | 97° |
| 2026-05-07 10:08 | 38.23556 | 107.44055 | 31191 ft | 530 kts | 97° |
| 2026-05-07 10:09 | 38.22502 | 107.53347 | 31188 ft | 531 kts | 97° |
| 2026-05-07 10:09 | 38.21450 | 107.62586 | 31190 ft | 531 kts | 97° |
| 2026-05-07 10:10 | 38.20381 | 107.71941 | 31193 ft | 531 kts | 97° |
| 2026-05-07 10:10 | 38.19363 | 107.81186 | 31202 ft | 532 kts | 96° |
| 2026-05-07 10:11 | 38.18488 | 107.90525 | 31201 ft | 532 kts | 95° |
| 2026-05-07 10:11 | 38.17655 | 107.99860 | 31210 ft | 533 kts | 95° |
| 2026-05-07 10:12 | 38.16760 | 108.09214 | 31200 ft | 533 kts | 95° |
| 2026-05-07 10:12 | 38.15831 | 108.18569 | 31202 ft | 534 kts | 96° |
| 2026-05-07 10:13 | 38.14887 | 108.27925 | 31204 ft | 534 kts | 96° |
| 2026-05-07 10:13 | 38.13992 | 108.37285 | 31203 ft | 533 kts | 94° |
| 2026-05-07 10:14 | 38.13248 | 108.46649 | 31208 ft | 533 kts | 94° |
| 2026-05-07 10:14 | 38.12527 | 108.56024 | 31192 ft | 534 kts | 94° |
| 2026-05-07 10:15 | 38.11743 | 108.65418 | 31197 ft | 535 kts | 95° |
| 2026-05-07 10:15 | 38.10928 | 108.74811 | 31198 ft | 535 kts | 95° |
| 2026-05-07 10:16 | 38.10111 | 108.84206 | 31198 ft | 536 kts | 95° |
| 2026-05-07 10:16 | 38.09293 | 108.93627 | 31206 ft | 537 kts | 95° |
| 2026-05-07 10:17 | 38.08472 | 109.03042 | 31203 ft | 537 kts | 95° |
| 2026-05-07 10:17 | 38.07641 | 109.12464 | 31224 ft | 537 kts | 95° |
| 2026-05-07 10:18 | 38.06800 | 109.21887 | 31206 ft | 537 kts | 95° |
| 2026-05-07 10:18 | 38.05945 | 109.31313 | 31224 ft | 538 kts | 95° |
| 2026-05-07 10:19 | 38.05088 | 109.40742 | 31228 ft | 538 kts | 95° |
| 2026-05-07 10:19 | 38.04230 | 109.50163 | 31237 ft | 538 kts | 95° |
| 2026-05-07 10:20 | 38.03368 | 109.59594 | 31236 ft | 538 kts | 95° |
| 2026-05-07 10:20 | 38.02491 | 109.69023 | 31234 ft | 538 kts | 95° |
| 2026-05-07 10:21 | 38.01603 | 109.78449 | 31226 ft | 539 kts | 95° |
| 2026-05-07 10:21 | 38.00709 | 109.87890 | 31241 ft | 540 kts | 95° |
| 2026-05-07 10:22 | 37.99797 | 109.97350 | 31232 ft | 540 kts | 95° |
| 2026-05-07 10:22 | 37.98882 | 110.06796 | 31230 ft | 541 kts | 95° |
| 2026-05-07 10:23 | 37.97968 | 110.16262 | 31233 ft | 541 kts | 95° |
| 2026-05-07 10:23 | 37.97042 | 110.25740 | 31235 ft | 542 kts | 95° |
| 2026-05-07 10:24 | 37.96096 | 110.35219 | 31239 ft | 543 kts | 95° |
| 2026-05-07 10:24 | 37.95143 | 110.44708 | 31241 ft | 543 kts | 95° |
| 2026-05-07 10:25 | 37.94196 | 110.54206 | 31254 ft | 544 kts | 95° |
| 2026-05-07 10:25 | 37.93230 | 110.63715 | 31253 ft | 545 kts | 95° |
| 2026-05-07 10:26 | 37.92299 | 110.73264 | 31251 ft | 546 kts | 94° |
| 2026-05-07 10:26 | 37.91535 | 110.82816 | 31285 ft | 546 kts | 93° |
| 2026-05-07 10:27 | 37.90814 | 110.92338 | 31262 ft | 548 kts | 93° |
| 2026-05-07 10:27 | 37.90024 | 111.01988 | 31265 ft | 548 kts | 94° |
| 2026-05-07 10:28 | 37.89191 | 111.11605 | 31266 ft | 550 kts | 94° |
| 2026-05-07 10:28 | 37.88356 | 111.21176 | 31276 ft | 551 kts | 94° |
| 2026-05-07 10:29 | 37.87528 | 111.30815 | 31282 ft | 552 kts | 94° |
| 2026-05-07 10:29 | 37.86682 | 111.40489 | 31284 ft | 553 kts | 94° |
| 2026-05-07 10:30 | 37.85363 | 111.54990 | 31284 ft | 554 kts | 95° |
| 2026-05-07 10:30 | 37.84314 | 111.64648 | 31281 ft | 554 kts | 96° |
| 2026-05-07 10:31 | 37.83198 | 111.74286 | 31281 ft | 554 kts | 96° |
| 2026-05-07 10:31 | 37.82232 | 111.83953 | 31272 ft | 553 kts | 94° |
| 2026-05-07 10:32 | 37.81394 | 111.93610 | 31279 ft | 552 kts | 94° |
| 2026-05-07 10:32 | 37.80531 | 112.03254 | 31282 ft | 552 kts | 95° |
| 2026-05-07 10:33 | 37.79609 | 112.12797 | 31271 ft | 551 kts | 95° |
| 2026-05-07 10:33 | 37.78652 | 112.22510 | 31262 ft | 552 kts | 95° |
| 2026-05-07 10:34 | 37.77710 | 112.32153 | 31256 ft | 553 kts | 95° |
| 2026-05-07 10:34 | 37.76785 | 112.41803 | 31244 ft | 553 kts | 94° |
| 2026-05-07 10:35 | 37.75918 | 112.51469 | 30589 ft | 554 kts | 94° |
| 2026-05-07 10:35 | 37.75487 | 112.56314 | 29787 ft | 554 kts | 94° |
| 2026-05-07 10:35 | 37.75052 | 112.61123 | 29236 ft | 547 kts | 94° |
| 2026-05-07 10:36 | 37.74606 | 112.65857 | 28724 ft | 539 kts | 94° |
| 2026-05-07 10:36 | 37.74133 | 112.70522 | 28232 ft | 532 kts | 94° |
| 2026-05-07 10:36 | 37.73644 | 112.75121 | 27749 ft | 525 kts | 94° |
| 2026-05-07 10:36 | 37.73151 | 112.79655 | 27296 ft | 518 kts | 94° |
| 2026-05-07 10:37 | 37.72841 | 112.84144 | 26781 ft | 507 kts | 85° |
| 2026-05-07 10:37 | 37.73018 | 112.88534 | 26303 ft | 493 kts | 76° |
| 2026-05-07 10:37 | 37.73640 | 112.92716 | 25898 ft | 477 kts | 67° |
| 2026-05-07 10:37 | 37.74640 | 112.96634 | 25472 ft | 461 kts | 59° |
| 2026-05-07 10:38 | 37.75957 | 113.00253 | 25029 ft | 447 kts | 54° |
| 2026-05-07 10:38 | 37.77347 | 113.03742 | 24583 ft | 440 kts | 54° |
| 2026-05-07 10:38 | 37.78266 | 113.06062 | 24302 ft | 436 kts | 54° |
| 2026-05-07 10:38 | 37.80039 | 113.10561 | 23749 ft | 427 kts | 54° |
| 2026-05-07 10:39 | 37.81355 | 113.13904 | 23223 ft | 422 kts | 54° |
| 2026-05-07 10:39 | 37.82237 | 113.16139 | 22863 ft | 419 kts | 54° |
| 2026-05-07 10:39 | 37.83531 | 113.19420 | 22337 ft | 415 kts | 54° |
| 2026-05-07 10:39 | 37.85219 | 113.23711 | 21695 ft | 408 kts | 55° |
| 2026-05-07 10:40 | 37.86072 | 113.25876 | 21364 ft | 405 kts | 55° |
| 2026-05-07 10:40 | 37.87323 | 113.29050 | 20906 ft | 401 kts | 55° |
| 2026-05-07 10:40 | 37.88544 | 113.32154 | 20433 ft | 397 kts | 55° |
| 2026-05-07 10:40 | 37.89782 | 113.35305 | 19971 ft | 392 kts | 56° |
| 2026-05-07 10:41 | 37.90974 | 113.38345 | 19510 ft | 389 kts | 56° |
| 2026-05-07 10:41 | 37.92123 | 113.41288 | 19081 ft | 386 kts | 56° |
| 2026-05-07 10:41 | 37.93306 | 113.44329 | 18671 ft | 382 kts | 56° |
| 2026-05-07 10:41 | 37.94474 | 113.47327 | 18219 ft | 378 kts | 57° |
| 2026-05-07 10:42 | 37.95632 | 113.50293 | 17728 ft | 374 kts | 57° |
| 2026-05-07 10:42 | 37.96786 | 113.53247 | 17261 ft | 371 kts | 57° |
| 2026-05-07 10:42 | 37.97927 | 113.56165 | 16788 ft | 369 kts | 57° |
| 2026-05-07 10:42 | 37.99059 | 113.59064 | 16360 ft | 365 kts | 57° |
| 2026-05-07 10:43 | 38.00179 | 113.61940 | 15926 ft | 362 kts | 58° |
| 2026-05-07 10:43 | 38.01286 | 113.64799 | 15480 ft | 360 kts | 58° |
| 2026-05-07 10:43 | 38.02210 | 113.67193 | 15102 ft | 357 kts | 58° |